^^
Saratoga-Weather Station Historical Data
Daily Summary for April 13, 2020 Units:  English    Metric   Both
Daily Weekly Monthly Yearly Custom
  High: Low: Average:
Temperature: 75.4 °F 54.1 °F 63.1 °F
Dew Point: 63.7 °F 53.2 °F 58.6 °F
Humidity: 98% 55% 87%
Wind Speed: 8.1mph 0mph 0.9mph
Wind Gust: 11mph - -
Wind- - South
Pressure: 29.9 in 29.8 in -
Precipitation: 0.31 in    
Historical Graphs
 
 
Tabular Data for April 13, 2020
Time Temperature Dew Point Pressure Wind Wind Speed Wind Gust Humidity Rainfall Rate (Hourly) solar
00:02 57.9 °F 56.5 °F 29.8 in West 4 mph 7 mph 95% 0.22 in 0 W/m2
00:07 57.7 °F 56.3 °F 29.8 in WSW 0.9 mph 4 mph 95% 0.2 in 0 W/m2
00:12 57.7 °F 56.3 °F 29.8 in East 2.9 mph 5 mph 95% 0.17 in 0 W/m2
00:17 57.9 °F 56.8 °F 29.8 in East 0.9 mph 2 mph 96% 0.19 in 0 W/m2
00:22 57.9 °F 56.8 °F 29.8 in NE 0.9 mph 2 mph 96% 0.22 in 0 W/m2
00:27 58.3 °F 57.2 °F 29.8 in Calm   2 mph 96% 0.24 in 0 W/m2
00:32 58.3 °F 57.2 °F 29.8 in NE 0.9 mph 2 mph 96% 0.25 in 0 W/m2
00:37 58.3 °F 57.2 °F 29.8 in NE 0.9 mph 4 mph 96% 0.25 in 0 W/m2
00:42 58.3 °F 57.2 °F 29.8 in Calm   1 mph 96% 0.24 in 0 W/m2
00:47 58.3 °F 57.2 °F 29.8 in SE 0.9 mph 2 mph 96% 0.24 in 0 W/m2
00:52 58.1 °F 57 °F 29.8 in ESE 0.9 mph 1 mph 96% 0.26 in 0 W/m2
00:57 58.1 °F 57 °F 29.8 in Calm   1 mph 96% 0.26 in 0 W/m2
01:02 57.9 °F 56.8 °F 29.8 in East 0.9 mph 1 mph 96% 0.25 in 0 W/m2
01:07 57.9 °F 56.8 °F 29.8 in Calm   1 mph 96% 0.24 in 0 W/m2
01:12 57.9 °F 56.8 °F 29.8 in Calm     96% 0.21 in 0 W/m2
01:18 57.7 °F 56.7 °F 29.8 in Calm   1 mph 96% 0.17 in 0 W/m2
01:23 57.7 °F 56.7 °F 29.8 in Calm     96% 0.13 in 0 W/m2
01:28 57.7 °F 56.7 °F 29.8 in Calm     96% 0.09 in 0 W/m2
01:33 57.7 °F 56.7 °F 29.8 in Calm     96% 0.09 in 0 W/m2
01:38 57.7 °F 56.7 °F 29.8 in Calm     96% 0.08 in 0 W/m2
01:43 57.7 °F 56.7 °F 29.8 in Calm     96% 0.06 in 0 W/m2
01:48 57.7 °F 56.7 °F 29.8 in Calm     96% 0.04 in 0 W/m2
01:53 57.6 °F 56.5 °F 29.8 in Calm     96% 0.01 in 0 W/m2
01:58 57.6 °F 56.5 °F 29.8 in Calm     96% 0 in 0 W/m2
02:03 57.6 °F 56.5 °F 29.8 in Calm     96% 0 in 0 W/m2
02:08 57.6 °F 56.5 °F 29.8 in Calm     96% 0 in 0 W/m2
02:13 57.6 °F 56.5 °F 29.8 in Calm     96% 0 in 0 W/m2
02:18 57.6 °F 56.5 °F 29.8 in Calm     96% 0 in 0 W/m2
02:23 57.6 °F 56.5 °F 29.8 in Calm     96% 0 in 0 W/m2
02:28 57.4 °F 56.3 °F 29.8 in Calm     96% 0 in 0 W/m2
02:33 57.4 °F 56.3 °F 29.8 in Calm     96% 0 in 0 W/m2
02:38 57.4 °F 56.3 °F 29.8 in Calm     96% 0 in 0 W/m2
02:43 57.2 °F 56.1 °F 29.8 in Calm     96% 0 in 0 W/m2
02:48 57.2 °F 56.1 °F 29.8 in Calm     96% 0 in 0 W/m2
02:53 57 °F 55.9 °F 29.8 in Calm     96% 0 in 0 W/m2
02:58 57.2 °F 56.1 °F 29.8 in Calm     96% 0 in 0 W/m2
03:03 57.2 °F 56.3 °F 29.8 in Calm     97% 0 in 0 W/m2
03:08 57.2 °F 56.3 °F 29.8 in Calm     97% 0 in 0 W/m2
03:13 57.2 °F 56.3 °F 29.8 in Calm     97% 0 in 0 W/m2
03:18 57.2 °F 56.3 °F 29.8 in Calm     97% 0 in 0 W/m2
03:23 57 °F 56.1 °F 29.8 in Calm     97% 0 in 0 W/m2
03:28 57 °F 56.1 °F 29.8 in Calm     97% 0 in 0 W/m2
03:33 57 °F 56.1 °F 29.8 in Calm     97% 0 in 0 W/m2
03:38 57.2 °F 56.3 °F 29.8 in Calm     97% 0 in 0 W/m2
03:43 57.2 °F 56.3 °F 29.8 in Calm     97% 0 in 0 W/m2
03:48 57 °F 56.1 °F 29.8 in Calm     97% 0 in 0 W/m2
03:53 57 °F 56.1 °F 29.8 in Calm     97% 0.01 in 0 W/m2
03:58 57 °F 56.1 °F 29.8 in Calm     97% 0.01 in 0 W/m2
04:03 56.8 °F 55.9 °F 29.8 in Calm     97% 0.01 in 0 W/m2
04:08 56.8 °F 55.9 °F 29.8 in Calm     97% 0.01 in 0 W/m2
04:13 56.8 °F 55.9 °F 29.8 in Calm   1 mph 97% 0.01 in 0 W/m2
04:18 56.7 °F 55.8 °F 29.8 in Calm     97% 0.01 in 0 W/m2
04:23 56.5 °F 55.6 °F 29.8 in Calm   1 mph 97% 0.01 in 0 W/m2
04:28 56.1 °F 55.2 °F 29.8 in Calm     97% 0.01 in 0 W/m2
04:33 55.9 °F 54.9 °F 29.8 in Calm     96% 0.01 in 0 W/m2
04:38 55.6 °F 54.5 °F 29.8 in Calm     96% 0.01 in 0 W/m2
04:43 55.4 °F 54.3 °F 29.8 in Calm     96% 0.01 in 0 W/m2
04:48 55.2 °F 54.1 °F 29.8 in Calm     96% 0.01 in 0 W/m2
04:53 55 °F 54 °F 29.8 in Calm     96% 0 in 0 W/m2
04:58 54.9 °F 54 °F 29.8 in Calm     97% 0 in 0 W/m2
05:03 54.9 °F 53.8 °F 29.8 in Calm     96% 0 in 0 W/m2
05:08 54.5 °F 53.4 °F 29.8 in Calm     96% 0 in 0 W/m2
05:13 54.3 °F 53.2 °F 29.8 in Calm     96% 0 in 0 W/m2
05:18 54.3 °F 53.4 °F 29.8 in Calm     97% 0 in 0 W/m2
05:23 54.1 °F 53.2 °F 29.8 in ESE 0.9 mph 1 mph 97% 0 in 0 W/m2
05:28 54.3 °F 53.4 °F 29.8 in Calm     97% 0 in 0 W/m2
05:33 54.3 °F 53.4 °F 29.8 in ESE 1 mph 1 mph 97% 0 in 0 W/m2
05:38 54.5 °F 53.6 °F 29.8 in Calm     97% 0 in 0 W/m2
05:43 54.9 °F 54 °F 29.8 in Calm     97% 0 in 5 W/m2
05:48 55 °F 54.1 °F 29.8 in Calm     97% 0 in 5 W/m2
05:53 55 °F 54.1 °F 29.8 in Calm     97% 0 in 5 W/m2
05:58 55.2 °F 54.3 °F 29.8 in ESE 0.9 mph 1 mph 97% 0 in 16 W/m2
06:04 55.6 °F 54.7 °F 29.8 in Calm   2 mph 97% 0 in 12 W/m2
06:09 55.4 °F 54.5 °F 29.8 in Calm     97% 0 in 21 W/m2
06:14 55.6 °F 54.7 °F 29.8 in Calm   2 mph 97% 0 in 19 W/m2
06:19 55.6 °F 54.7 °F 29.8 in ESE 0.9 mph 1 mph 97% 0 in 14 W/m2
06:24 55.8 °F 54.9 °F 29.8 in Calm     97% 0 in 18 W/m2
06:29 55.8 °F 54.9 °F 29.8 in Calm     97% 0 in 26 W/m2
06:34 55.9 °F 55 °F 29.8 in East 0.9 mph 3 mph 97% 0 in 21 W/m2
06:39 55.9 °F 55 °F 29.8 in Calm     97% 0 in 28 W/m2
06:44 55.9 °F 55 °F 29.8 in East 0.9 mph 3 mph 97% 0 in 26 W/m2
06:49 56.1 °F 55.2 °F 29.8 in Calm   2 mph 97% 0 in 30 W/m2
06:54 56.1 °F 55.2 °F 29.8 in West 0.9 mph 2 mph 97% 0 in 51 W/m2
06:59 56.1 °F 55.2 °F 29.8 in West 0.9 mph 2 mph 97% 0 in 58 W/m2
07:04 55.9 °F 55 °F 29.8 in ENE 0.9 mph 3 mph 97% 0 in 47 W/m2
07:09 55.8 °F 54.9 °F 29.8 in East 0.9 mph 2 mph 97% 0 in 56 W/m2
07:14 55.9 °F 55 °F 29.8 in East 0.9 mph 2 mph 97% 0 in 49 W/m2
07:19 55.9 °F 55 °F 29.8 in ENE 2.9 mph 3 mph 97% 0 in 42 W/m2
07:24 55.9 °F 55 °F 29.8 in Calm   1 mph 97% 0 in 62 W/m2
07:29 56.1 °F 55.2 °F 29.8 in East 0.9 mph 2 mph 97% 0 in 62 W/m2
07:34 56.3 °F 55.4 °F 29.8 in Calm   2 mph 97% 0 in 88 W/m2
07:40 56.7 °F 55.8 °F 29.8 in Calm   1 mph 97% 0 in 77 W/m2
07:45 56.8 °F 55.9 °F 29.8 in East 2 mph 4 mph 97% 0 in 167 W/m2
07:50 56.8 °F 55.9 °F 29.8 in East 2 mph 2 mph 97% 0 in 102 W/m2
07:55 56.7 °F 55.8 °F 29.8 in East 0.9 mph 4 mph 97% 0 in 86 W/m2
08:00 56.8 °F 55.9 °F 29.8 in ENE 2 mph 2 mph 97% 0 in 132 W/m2
08:05 56.8 °F 55.9 °F 29.8 in ESE 2.9 mph 3 mph 97% 0 in 84 W/m2
08:10 57 °F 56.1 °F 29.8 in Calm   2 mph 97% 0 in 127 W/m2
08:15 57.2 °F 56.7 °F 29.8 in NE 0.9 mph 2 mph 98% 0 in 148 W/m2
08:20 57.4 °F 56.5 °F 29.8 in ESE 2.9 mph 6 mph 97% 0 in 163 W/m2
08:25 57.6 °F 56.7 °F 29.8 in ENE 2 mph 4 mph 97% 0 in 209 W/m2
08:30 57.7 °F 57.2 °F 29.8 in ENE 0.9 mph 6 mph 98% 0 in 213 W/m2
08:35 57.9 °F 57 °F 29.8 in ENE 2 mph 6 mph 97% 0 in 244 W/m2
08:40 58.3 °F 57.4 °F 29.8 in East 2.9 mph 4 mph 97% 0 in 427 W/m2
08:46 58.8 °F 57.9 °F 29.8 in Calm   4 mph 97% 0 in 399 W/m2
08:51 59.5 °F 59 °F 29.8 in East 2 mph 4 mph 98% 0 in 411 W/m2
08:56 60.1 °F 59.5 °F 29.8 in SSE 0.9 mph 1 mph 98% 0 in 427 W/m2
09:01 60.3 °F 59.7 °F 29.8 in ESE 2 mph 4 mph 98% 0 in 120 W/m2
09:06 60.6 °F 59.7 °F 29.8 in SE 2.9 mph 4 mph 97% 0 in 457 W/m2
09:11 61.3 °F 60.4 °F 29.8 in ENE 2.9 mph 3 mph 97% 0 in 469 W/m2
09:16 61.5 °F 60.6 °F 29.8 in East 2 mph 4 mph 97% 0 in 485 W/m2
09:21 62.1 °F 61 °F 29.8 in ESE 2 mph 3 mph 96% 0 in 494 W/m2
09:26 62.6 °F 61.2 °F 29.8 in East 2.9 mph 3 mph 95% 0 in 519 W/m2
09:31 63.1 °F 61.3 °F 29.8 in Calm   1 mph 94% 0 in 527 W/m2
09:36 63.7 °F 61.7 °F 29.8 in NE 0.9 mph 3 mph 93% 0 in 552 W/m2
09:41 64.2 °F 61.9 °F 29.8 in NNE 4 mph 6 mph 92% 0 in 568 W/m2
09:46 64.9 °F 61.9 °F 29.8 in Calm   2 mph 90% 0 in 563 W/m2
09:51 65.5 °F 61.9 °F 29.8 in East 2 mph 4 mph 88% 0 in 573 W/m2
09:56 66.2 °F 61.9 °F 29.8 in East 2 mph 7 mph 86% 0 in 580 W/m2
10:01 66.4 °F 61.3 °F 29.8 in ENE 0.9 mph 3 mph 84% 0 in 594 W/m2
10:06 66.7 °F 61 °F 29.8 in NNW 2 mph 7 mph 82% 0 in 601 W/m2
10:11 66.9 °F 60.3 °F 29.8 in NNE 4.9 mph 9 mph 79% 0 in 60 W/m2
10:16 66.9 °F 60.6 °F 29.8 in ESE 2.9 mph 5 mph 80% 0 in 116 W/m2
10:21 67.5 °F 60.8 °F 29.8 in ENE 0.9 mph 4 mph 79% 0 in 640 W/m2
10:26 67.8 °F 60.3 °F 29.8 in East 2 mph 4 mph 77% 0 in 656 W/m2
10:31 68.5 °F 61 °F 29.8 in SSW 0.9 mph 2 mph 77% 0 in 666 W/m2
10:36 68.7 °F 61.9 °F 29.8 in SSW 2 mph 2 mph 79% 0 in 679 W/m2
10:41 68.5 °F 61.3 °F 29.8 in WSW 0.9 mph 3 mph 78% 0 in 687 W/m2
10:46 68.5 °F 60.3 °F 29.8 in WNW 4 mph 8 mph 75% 0 in 701 W/m2
10:51 68.7 °F 60.8 °F 29.8 in Calm   1 mph 76% 0 in 710 W/m2
10:56 68.7 °F 59.4 °F 29.8 in WSW 2 mph 7 mph 72% 0 in 719 W/m2
11:01 68.9 °F 59.5 °F 29.8 in West 0.9 mph 5 mph 72% 0 in 728 W/m2
11:06 69.3 °F 60.6 °F 29.8 in West 0.9 mph 4 mph 74% 0 in 737 W/m2
11:11 69.6 °F 61.3 °F 29.8 in Calm   5 mph 75% 0 in 747 W/m2
11:16 70 °F 59.7 °F 29.8 in Calm   3 mph 70% 0 in 756 W/m2
11:21 70.2 °F 59.5 °F 29.8 in NNE 0.9 mph 5 mph 69% 0 in 765 W/m2
11:26 70.2 °F 59.2 °F 29.8 in Calm   2 mph 68% 0 in 773 W/m2
11:31 70.7 °F 60.4 °F 29.8 in NNW 2 mph 5 mph 70% 0 in 784 W/m2
11:36 71.1 °F 59.9 °F 29.8 in SW 2 mph 2 mph 68% 0 in 798 W/m2
11:41 71.2 °F 61 °F 29.8 in Calm   5 mph 70% 0 in 830 W/m2
11:46 72 °F 61.7 °F 29.8 in Calm   2 mph 70% 0 in 893 W/m2
11:51 72.7 °F 61.2 °F 29.8 in WNW 0.9 mph 2 mph 67% 0 in 933 W/m2
11:56 73 °F 61.5 °F 29.8 in NE 0.9 mph 4 mph 67% 0 in 904 W/m2
12:01 73.9 °F 61.3 °F 29.8 in Calm   3 mph 65% 0 in 932 W/m2
12:06 73.6 °F 60.6 °F 29.8 in North 2 mph 5 mph 64% 0 in 304 W/m2
12:11 73.6 °F 60.3 °F 29.8 in NW 0.9 mph 2 mph 63% 0 in 309 W/m2
12:16 73.2 °F 60.3 °F 29.8 in East 2.9 mph 11 mph 64% 0 in 1025 W/m2
12:21 72.7 °F 61.5 °F 29.8 in Calm   4 mph 68% 0 in 283 W/m2
12:26 72.5 °F 60.4 °F 29.8 in Calm   11 mph 66% 0 in 207 W/m2
12:31 72.7 °F 60.6 °F 29.8 in WNW 0.9 mph 3 mph 66% 0 in 225 W/m2
12:36 72.7 °F 59.4 °F 29.8 in WNW 2 mph 4 mph 63% 0 in 336 W/m2
12:41 72.3 °F 58.6 °F 29.8 in ESE 6 mph 6 mph 62% 0 in 230 W/m2
12:46 72.1 °F 57.6 °F 29.8 in SSE 4 mph 4 mph 60% 0 in 587 W/m2
12:51 72.9 °F 59 °F 29.8 in South 0.9 mph 3 mph 62% 0 in 933 W/m2
12:56 73.6 °F 58.3 °F 29.8 in SE 2 mph 4 mph 59% 0 in 320 W/m2
13:01 74.5 °F 59.7 °F 29.8 in Calm   4 mph 60% 0 in 1020 W/m2
13:06 75 °F 60.3 °F 29.8 in Calm   3 mph 60% 0 in 1071 W/m2
13:11 75.4 °F 59 °F 29.8 in NW 2 mph 3 mph 57% 0 in 506 W/m2
13:16 75 °F 57.7 °F 29.8 in ENE 2 mph 3 mph 55% 0 in 529 W/m2
13:21 75.2 °F 57.9 °F 29.8 in NW 2 mph 2 mph 55% 0 in 944 W/m2
13:26 74.8 °F 57.6 °F 29.8 in SW 0.9 mph 3 mph 55% 0 in 295 W/m2
13:31 73.9 °F 57.7 °F 29.8 in Calm   7 mph 57% 0 in 279 W/m2
13:36 73.2 °F 57.6 °F 29.8 in WNW 2.9 mph 4 mph 58% 0 in 345 W/m2
13:41 73 °F 59.2 °F 29.8 in SSW 2 mph 6 mph 62% 0 in 424 W/m2
13:46 73 °F 58.8 °F 29.8 in NW 2 mph 4 mph 61% 0 in 446 W/m2
13:51 73.2 °F 58.5 °F 29.8 in West 0.9 mph 3 mph 60% 0 in 425 W/m2
13:56 73.4 °F 58.6 °F 29.8 in NNW 0.9 mph 4 mph 60% 0 in 455 W/m2
14:01 73.8 °F 60.4 °F 29.8 in North 0.9 mph 1 mph 63% 0 in 403 W/m2
14:06 74.1 °F 59.4 °F 29.8 in Calm   2 mph 60% 0 in 1172 W/m2
14:11 74.7 °F 58.5 °F 29.8 in NNE 0.9 mph 2 mph 57% 0 in 867 W/m2
14:16 74.7 °F 59.4 °F 29.8 in NW 2 mph 7 mph 59% 0 in 348 W/m2
14:21 74.5 °F 59.2 °F 29.8 in East 2 mph 2 mph 59% 0 in 162 W/m2
14:26 74.1 °F 61.2 °F 29.8 in NNE 2 mph 5 mph 64% 0 in 204 W/m2
14:31 73.9 °F 60.6 °F 29.8 in East 2.9 mph 4 mph 63% 0 in 299 W/m2
14:36 73.8 °F 60.4 °F 29.8 in ENE 0.9 mph 2 mph 63% 0 in 323 W/m2
14:41 73.9 °F 60.6 °F 29.8 in NE 2.9 mph 4 mph 63% 0 in 290 W/m2
14:46 73.9 °F 61.9 °F 29.8 in Calm   1 mph 66% 0 in 292 W/m2
14:51 73.9 °F 59.7 °F 29.8 in SE 2 mph 3 mph 61% 0 in 265 W/m2
14:56 74.1 °F 62.1 °F 29.8 in SSE 2 mph 2 mph 66% 0 in 327 W/m2
15:01 74.1 °F 61.2 °F 29.8 in Calm   2 mph 64% 0 in 378 W/m2
15:06 74.8 °F 61.3 °F 29.8 in Calm   1 mph 63% 0 in 378 W/m2
15:11 75.4 °F 61.9 °F 29.8 in East 2.9 mph 6 mph 63% 0 in 374 W/m2
15:16 75.4 °F 59.5 °F 29.8 in East 6 mph 6 mph 58% 0 in 294 W/m2
15:21 74.8 °F 59.5 °F 29.8 in ENE 0.9 mph 4 mph 59% 0 in 183 W/m2
15:26 74.7 °F 61.7 °F 29.8 in SSE 0.9 mph 2 mph 64% 0 in 114 W/m2
15:31 73.9 °F 61 °F 29.8 in SSE 0.9 mph 3 mph 64% 0 in 132 W/m2
15:36 73.8 °F 63.3 °F 29.8 in Calm   1 mph 70% 0 in 137 W/m2
15:41 73 °F 62.2 °F 29.8 in SE 2 mph 2 mph 69% 0 in 90 W/m2
15:46 72.5 °F 62.6 °F 29.8 in ENE 0.9 mph 2 mph 71% 0 in 65 W/m2
15:51 71.8 °F 61.9 °F 29.8 in ENE 0.9 mph 5 mph 71% 0 in 53 W/m2
15:56 71.2 °F 62.6 °F 29.8 in SE 0.9 mph 1 mph 74% 0 in 42 W/m2
16:01 70.3 °F 62.4 °F 29.8 in SE 5 mph 5 mph 76% 0.01 in 47 W/m2
16:06 69.6 °F 63.5 °F 29.8 in Calm   1 mph 81% 0.01 in 62 W/m2
16:11 69.1 °F 63.7 °F 29.8 in Calm   1 mph 83% 0.01 in 58 W/m2
16:16 68.2 °F 63.1 °F 29.8 in Calm   2 mph 84% 0.02 in 47 W/m2
16:21 67.3 °F 62.6 °F 29.8 in South 0.9 mph 2 mph 85% 0.02 in 49 W/m2
16:26 66.7 °F 62.8 °F 29.8 in Calm   1 mph 87% 0.02 in 47 W/m2
16:31 66.4 °F 62.8 °F 29.8 in Calm   1 mph 88% 0.03 in 51 W/m2
16:36 65.8 °F 62.4 °F 29.8 in Calm     89% 0.03 in 56 W/m2
16:42 65.7 °F 62.2 °F 29.8 in Calm   1 mph 89% 0.03 in 63 W/m2
16:47 65.5 °F 62.4 °F 29.8 in Calm   2 mph 90% 0.03 in 65 W/m2
16:52 65.3 °F 62.2 °F 29.8 in Calm   1 mph 90% 0.03 in 63 W/m2
16:57 65.3 °F 62.2 °F 29.8 in Calm     90% 0.04 in 72 W/m2
17:02 65.3 °F 62.6 °F 29.8 in Calm     91% 0.03 in 79 W/m2
17:07 65.3 °F 62.2 °F 29.8 in NNE 0.9 mph 1 mph 90% 0.03 in 70 W/m2
17:12 65.3 °F 62.2 °F 29.8 in Calm   1 mph 90% 0.03 in 62 W/m2
17:17 65.5 °F 62.2 °F 29.8 in SSE 0.9 mph 1 mph 89% 0.02 in 65 W/m2
17:22 65.5 °F 61.9 °F 29.8 in NNW 0.9 mph 2 mph 88% 0.02 in 79 W/m2
17:27 65.5 °F 62.2 °F 29.8 in Calm   2 mph 89% 0.02 in 88 W/m2
17:32 65.5 °F 62.4 °F 29.8 in North 0.9 mph 3 mph 90% 0.02 in 79 W/m2
17:37 65.5 °F 62.4 °F 29.8 in Calm     90% 0.02 in 62 W/m2
17:42 65.1 °F 62.1 °F 29.8 in Calm   3 mph 90% 0.02 in 39 W/m2
17:47 65.1 °F 62.1 °F 29.8 in Calm     90% 0.02 in 44 W/m2
17:52 65.1 °F 62.1 °F 29.8 in Calm     90% 0.02 in 46 W/m2
17:57 64.9 °F 61.9 °F 29.8 in NW 2 mph 4 mph 90% 0.01 in 72 W/m2
18:02 64.8 °F 61.7 °F 29.8 in WNW 0.9 mph 2 mph 90% 0.01 in 86 W/m2
18:07 64.8 °F 61.7 °F 29.8 in WNW 0.9 mph 3 mph 90% 0.01 in 95 W/m2
18:12 64.9 °F 61.9 °F 29.8 in WNW 2.9 mph 7 mph 90% 0.01 in 81 W/m2
18:17 64.8 °F 61.5 °F 29.8 in West 0.9 mph 8 mph 89% 0.01 in 74 W/m2
18:22 64.8 °F 61.5 °F 29.8 in WSW 0.9 mph 4 mph 89% 0.01 in 79 W/m2
18:27 64.8 °F 61.5 °F 29.8 in West 2.9 mph 5 mph 89% 0.01 in 72 W/m2
18:32 64.8 °F 61.7 °F 29.8 in West 2 mph 4 mph 90% 0 in 60 W/m2
18:37 64.8 °F 61.7 °F 29.8 in WSW 2.9 mph 3 mph 90% 0 in 74 W/m2
18:42 64.8 °F 61.7 °F 29.8 in NW 4.9 mph 7 mph 90% 0 in 84 W/m2
18:47 64.6 °F 61.3 °F 29.9 in WSW 2.9 mph 9 mph 89% 0 in 76 W/m2
18:52 64.6 °F 61.3 °F 29.9 in WNW 2.9 mph 6 mph 89% 0 in 69 W/m2
18:57 64.6 °F 61.5 °F 29.9 in WSW 4.9 mph 9 mph 90% 0 in 62 W/m2
19:02 64.6 °F 61.5 °F 29.8 in West 2 mph 4 mph 90% 0 in 62 W/m2
19:07 64.6 °F 61.5 °F 29.9 in WNW 2 mph 9 mph 90% 0 in 62 W/m2
19:12 64.2 °F 61.2 °F 29.9 in NW 4 mph 4 mph 90% 0 in 58 W/m2
19:17 64.2 °F 61.2 °F 29.8 in West 8.1 mph 8 mph 90% 0 in 63 W/m2
19:22 64 °F 61 °F 29.8 in West 4 mph 6 mph 90% 0 in 84 W/m2
19:27 63.9 °F 61.2 °F 29.8 in NW 7 mph 7 mph 91% 0 in 128 W/m2
19:32 64 °F 61.3 °F 29.8 in West 2 mph 5 mph 91% 0 in 132 W/m2
19:37 64 °F 61.3 °F 29.8 in West 0.9 mph 3 mph 91% 0 in 111 W/m2
19:42 64.2 °F 61.2 °F 29.8 in Calm   5 mph 90% 0 in 93 W/m2
19:47 64.2 °F 61.5 °F 29.8 in Calm     91% 0 in 84 W/m2
19:52 64.4 °F 61.3 °F 29.8 in Calm   2 mph 90% 0 in 105 W/m2
19:57 64.6 °F 61.3 °F 29.9 in WNW 0.9 mph 2 mph 89% 0 in 93 W/m2
20:02 64.6 °F 61.3 °F 29.8 in West 0.9 mph 1 mph 89% 0 in 72 W/m2
20:07 64.6 °F 61.5 °F 29.8 in Calm     90% 0 in 76 W/m2
20:12 64.4 °F 61.3 °F 29.8 in Calm     90% 0 in 70 W/m2
20:17 64.2 °F 61.2 °F 29.8 in West 0.9 mph 2 mph 90% 0 in 63 W/m2
20:22 64.2 °F 61.5 °F 29.8 in Calm   1 mph 91% 0 in 60 W/m2
20:27 64 °F 61.3 °F 29.9 in Calm     91% 0 in 63 W/m2
20:32 63.9 °F 61.2 °F 29.9 in Calm   1 mph 91% 0 in 56 W/m2
20:37 63.9 °F 61.2 °F 29.9 in Calm     91% 0 in 49 W/m2
20:42 63.7 °F 60.6 °F 29.9 in NNW 0.9 mph 2 mph 90% 0 in 47 W/m2
20:48 63.7 °F 60.6 °F 29.9 in Calm     90% 0 in 40 W/m2
20:53 63.7 °F 61 °F 29.9 in Calm   2 mph 91% 0 in 32 W/m2
20:58 63.3 °F 60.6 °F 29.9 in West 0.9 mph 1 mph 91% 0 in 23 W/m2
21:03 63.1 °F 60.4 °F 29.9 in Calm   1 mph 91% 0 in 19 W/m2
21:08 62.8 °F 60.1 °F 29.9 in Calm     91% 0 in 18 W/m2
21:13 62.4 °F 59.7 °F 29.9 in Calm     91% 0 in 14 W/m2
21:18 62.1 °F 59.4 °F 29.9 in NW 2 mph 2 mph 91% 0 in 12 W/m2
21:23 61.9 °F 59.2 °F 29.9 in Calm     91% 0 in 11 W/m2
21:28 61.3 °F 58.6 °F 29.9 in WSW 0.9 mph 2 mph 91% 0 in 7 W/m2
21:33 61.2 °F 58.5 °F 29.9 in WSW 0.9 mph 1 mph 91% 0 in 5 W/m2
21:38 61 °F 58.6 °F 29.9 in Calm   1 mph 92% 0 in 0 W/m2
21:43 60.6 °F 58.3 °F 29.9 in Calm   1 mph 92% 0 in 0 W/m2
21:48 60.4 °F 58.5 °F 29.9 in Calm   1 mph 93% 0 in 0 W/m2
21:53 60.3 °F 58.3 °F 29.9 in Calm     93% 0 in 0 W/m2
21:58 60.1 °F 58.1 °F 29.9 in Calm     93% 0 in 0 W/m2
22:03 60.1 °F 58.1 °F 29.9 in Calm     93% 0 in 0 W/m2
22:08 59.9 °F 57.9 °F 29.9 in Calm     93% 0 in 0 W/m2
22:13 59.7 °F 57.7 °F 29.9 in Calm     93% 0 in 0 W/m2
22:18 59.5 °F 57.6 °F 29.9 in Calm     93% 0 in 0 W/m2
22:23 59.4 °F 57.6 °F 29.9 in Calm     94% 0 in 0 W/m2
22:28 59.4 °F 57.6 °F 29.9 in Calm     94% 0 in 0 W/m2
22:33 59.4 °F 57.6 °F 29.9 in Calm     94% 0 in 0 W/m2
22:38 59.2 °F 57.4 °F 29.9 in Calm     94% 0 in 0 W/m2
22:43 59.2 °F 57.4 °F 29.9 in Calm     94% 0 in 0 W/m2
22:48 59.2 °F 57.4 °F 29.9 in Calm     94% 0 in 0 W/m2
22:53 59.2 °F 57.4 °F 29.9 in Calm     94% 0 in 0 W/m2
22:58 59.2 °F 57.7 °F 29.9 in Calm     95% 0 in 0 W/m2
23:03 59.2 °F 57.7 °F 29.9 in Calm     95% 0 in 0 W/m2
23:08 59.2 °F 57.7 °F 29.9 in Calm     95% 0 in 0 W/m2
23:13 59.4 °F 57.9 °F 29.9 in Calm     95% 0 in 0 W/m2
23:18 59.4 °F 57.9 °F 29.9 in WSW 0.9 mph 2 mph 95% 0 in 0 W/m2
23:23 59.2 °F 57.7 °F 29.9 in Calm     95% 0 in 0 W/m2
23:28 59.2 °F 57.7 °F 29.9 in Calm     95% 0 in 0 W/m2
23:33 59.2 °F 57.7 °F 29.9 in Calm     95% 0 in 0 W/m2
23:38 59.2 °F 57.7 °F 29.9 in WSW 0.9 mph 1 mph 95% 0 in 0 W/m2
23:43 59 °F 57.6 °F 29.9 in Calm   1 mph 95% 0 in 0 W/m2
23:48 58.8 °F 57.4 °F 29.9 in Calm     95% 0 in 0 W/m2
23:53 58.8 °F 57.4 °F 29.9 in Calm   1 mph 95% 0 in 0 W/m2
23:58 58.6 °F 57.2 °F 29.9 in Calm     95% 0 in 0 W/m2
Juneau County Weather
Compliments of Weather Underground - 4 mb